sensor_id;sensor_type;location;lat;lon;timestamp;pressure;altitude;pressure_sealevel;temperature;humidity
10482;BME280;5288;42.334;23.876;2022-08-05T00:00:21;56168.00;;;-140.56;73.32
10482;BME280;5288;42.334;23.876;2022-08-05T00:02:48;56162.09;;;-140.56;73.25
10482;BME280;5288;42.334;23.876;2022-08-05T00:05:15;56100.81;;;-140.56;73.16
10482;BME280;5288;42.334;23.876;2022-08-05T00:07:42;56140.34;;;-140.56;73.17
10482;BME280;5288;42.334;23.876;2022-08-05T00:10:10;56140.34;;;-140.56;73.33
10482;BME280;5288;42.334;23.876;2022-08-05T00:12:38;56166.03;;;-140.56;72.99
10482;BME280;5288;42.334;23.876;2022-08-05T00:15:06;56126.50;;;-140.56;72.85
10482;BME280;5288;42.334;23.876;2022-08-05T00:17:33;56132.44;;;-140.56;73.29
10482;BME280;5288;42.334;23.876;2022-08-05T00:20:00;56126.50;;;-140.56;73.40
10482;BME280;5288;42.334;23.876;2022-08-05T00:22:27;56171.97;;;-140.56;73.18
10482;BME280;5288;42.334;23.876;2022-08-05T00:24:54;56156.16;;;-140.56;73.48
10482;BME280;5288;42.334;23.876;2022-08-05T00:27:22;56146.28;;;-140.56;73.38
10482;BME280;5288;42.334;23.876;2022-08-05T00:29:49;56132.44;;;-140.56;73.53
10482;BME280;5288;42.334;23.876;2022-08-05T00:32:16;56156.16;;;-140.56;73.07
10482;BME280;5288;42.334;23.876;2022-08-05T00:34:44;56120.59;;;-140.56;73.20
10482;BME280;5288;42.334;23.876;2022-08-05T00:37:11;56140.34;;;-140.56;73.19
10482;BME280;5288;42.334;23.876;2022-08-05T00:39:38;56160.13;;;-140.56;73.19
10482;BME280;5288;42.334;23.876;2022-08-05T00:42:07;56112.69;;;-140.56;73.37
10482;BME280;5288;42.334;23.876;2022-08-05T00:44:35;56162.09;;;-140.56;73.45
10482;BME280;5288;42.334;23.876;2022-08-05T00:47:02;56154.19;;;-140.56;73.17
10482;BME280;5288;42.334;23.876;2022-08-05T00:49:30;56120.59;;;-140.56;73.23
10482;BME280;5288;42.334;23.876;2022-08-05T00:51:57;56150.22;;;-140.56;73.35
10482;BME280;5288;42.334;23.876;2022-08-05T00:54:24;56148.25;;;-140.56;73.48
10482;BME280;5288;42.334;23.876;2022-08-05T00:56:51;56146.28;;;-140.56;73.38
10482;BME280;5288;42.334;23.876;2022-08-05T00:59:18;56146.28;;;-140.56;73.57
10482;BME280;5288;42.334;23.876;2022-08-05T01:01:46;56140.34;;;-140.56;74.05
10482;BME280;5288;42.334;23.876;2022-08-05T01:04:13;56179.88;;;-140.56;74.22
10482;BME280;5288;42.334;23.876;2022-08-05T01:06:40;56175.91;;;-140.56;74.13
10482;BME280;5288;42.334;23.876;2022-08-05T01:09:07;56154.19;;;-140.56;74.21
10482;BME280;5288;42.334;23.876;2022-08-05T01:11:36;56148.25;;;-140.56;74.26
10482;BME280;5288;42.334;23.876;2022-08-05T01:14:10;56171.97;;;-140.56;74.43
10482;BME280;5288;42.334;23.876;2022-08-05T01:16:44;56183.81;;;-140.56;74.32
10482;BME280;5288;42.334;23.876;2022-08-05T01:19:27;56148.25;;;-140.56;74.32
10482;BME280;5288;42.334;23.876;2022-08-05T01:22:20;56171.97;;;-140.56;74.34
10482;BME280;5288;42.334;23.876;2022-08-05T01:25:04;56183.81;;;-140.56;74.40
10482;BME280;5288;42.334;23.876;2022-08-05T01:28:08;56146.28;;;-140.56;74.47
10482;BME280;5288;42.334;23.876;2022-08-05T01:30:45;56173.94;;;-140.56;73.77
10482;BME280;5288;42.334;23.876;2022-08-05T01:33:15;56144.31;;;-140.56;74.22
10482;BME280;5288;42.334;23.876;2022-08-05T01:35:46;56148.25;;;-140.56;73.75
10482;BME280;5288;42.334;23.876;2022-08-05T01:38:16;56150.22;;;-140.56;73.80
10482;BME280;5288;42.334;23.876;2022-08-05T01:40:45;56148.25;;;-140.56;73.84
10482;BME280;5288;42.334;23.876;2022-08-05T01:43:15;56166.03;;;-140.56;73.71
10482;BME280;5288;42.334;23.876;2022-08-05T01:45:43;56152.22;;;-140.56;73.95
10482;BME280;5288;42.334;23.876;2022-08-05T01:48:12;56166.03;;;-140.56;74.04
10482;BME280;5288;42.334;23.876;2022-08-05T01:50:42;56181.84;;;-140.56;74.19
10482;BME280;5288;42.334;23.876;2022-08-05T01:53:12;56171.97;;;-140.56;74.84
10482;BME280;5288;42.334;23.876;2022-08-05T01:55:43;56185.81;;;-140.56;74.85
10482;BME280;5288;42.334;23.876;2022-08-05T01:58:13;56191.72;;;-140.56;75.00
10482;BME280;5288;42.334;23.876;2022-08-05T02:00:46;56185.81;;;-140.56;75.03
10482;BME280;5288;42.334;23.876;2022-08-05T02:03:19;56185.81;;;-140.56;74.77
10482;BME280;5288;42.334;23.876;2022-08-05T02:05:48;56179.88;;;-140.56;75.02
10482;BME280;5288;42.334;23.876;2022-08-05T02:08:17;56160.13;;;-140.56;74.74
10482;BME280;5288;42.334;23.876;2022-08-05T02:10:48;56183.81;;;-140.56;74.34
10482;BME280;5288;42.334;23.876;2022-08-05T02:13:26;56162.09;;;-140.56;74.23
10482;BME280;5288;42.334;23.876;2022-08-05T02:16:02;56158.13;;;-140.56;74.67
10482;BME280;5288;42.334;23.876;2022-08-05T02:18:33;56168.00;;;-140.56;74.97
10482;BME280;5288;42.334;23.876;2022-08-05T02:21:06;56168.00;;;-140.56;75.38
10482;BME280;5288;42.334;23.876;2022-08-05T02:23:37;56164.06;;;-140.56;74.97
10482;BME280;5288;42.334;23.876;2022-08-05T02:26:09;56181.84;;;-140.56;74.99
10482;BME280;5288;42.334;23.876;2022-08-05T02:28:40;56171.97;;;-140.56;74.71
10482;BME280;5288;42.334;23.876;2022-08-05T02:31:11;56160.13;;;-140.56;74.95
10482;BME280;5288;42.334;23.876;2022-08-05T02:33:44;56195.69;;;-140.56;74.82
10482;BME280;5288;42.334;23.876;2022-08-05T02:36:16;56177.91;;;-140.56;74.70
10482;BME280;5288;42.334;23.876;2022-08-05T02:38:46;56209.50;;;-140.56;74.96
10482;BME280;5288;42.334;23.876;2022-08-05T02:41:14;56185.81;;;-140.56;75.19
10482;BME280;5288;42.334;23.876;2022-08-05T02:43:46;56173.94;;;-140.56;75.59
10482;BME280;5288;42.334;23.876;2022-08-05T02:46:15;56185.81;;;-140.56;75.78
10482;BME280;5288;42.334;23.876;2022-08-05T02:48:43;56162.09;;;-140.56;76.01
10482;BME280;5288;42.334;23.876;2022-08-05T02:51:11;56177.91;;;-140.56;76.36
10482;BME280;5288;42.334;23.876;2022-08-05T02:53:40;56185.81;;;-140.56;76.32
10482;BME280;5288;42.334;23.876;2022-08-05T02:56:08;56193.72;;;-140.56;76.19
10482;BME280;5288;42.334;23.876;2022-08-05T02:58:37;56181.84;;;-140.56;76.14
10482;BME280;5288;42.334;23.876;2022-08-05T03:01:08;56219.41;;;-140.56;75.97
10482;BME280;5288;42.334;23.876;2022-08-05T03:03:38;56209.50;;;-140.56;75.96
10482;BME280;5288;42.334;23.876;2022-08-05T03:06:07;56193.72;;;-140.56;75.92
10482;BME280;5288;42.334;23.876;2022-08-05T03:08:36;56187.78;;;-140.56;75.89
10482;BME280;5288;42.334;23.876;2022-08-05T03:11:03;56183.81;;;-140.56;75.99
10482;BME280;5288;42.334;23.876;2022-08-05T03:13:30;56173.94;;;-140.56;75.59
10482;BME280;5288;42.334;23.876;2022-08-05T03:15:57;56221.38;;;-140.56;75.50
10482;BME280;5288;42.334;23.876;2022-08-05T03:18:25;56181.84;;;-140.56;75.35
10482;BME280;5288;42.334;23.876;2022-08-05T03:20:52;56195.69;;;-140.56;75.88
10482;BME280;5288;42.334;23.876;2022-08-05T03:23:20;56207.53;;;-140.56;76.16
10482;BME280;5288;42.334;23.876;2022-08-05T03:25:47;56195.69;;;-140.56;76.18
10482;BME280;5288;42.334;23.876;2022-08-05T03:28:14;56144.31;;;-140.56;76.31
10482;BME280;5288;42.334;23.876;2022-08-05T03:30:42;56201.63;;;-140.56;76.68
10482;BME280;5288;42.334;23.876;2022-08-05T03:33:10;56183.81;;;-140.56;76.71
10482;BME280;5288;42.334;23.876;2022-08-05T03:35:38;56195.69;;;-140.56;76.48
10482;BME280;5288;42.334;23.876;2022-08-05T03:38:05;56173.94;;;-140.56;76.39
10482;BME280;5288;42.334;23.876;2022-08-05T03:40:33;56175.91;;;-140.56;76.27
10482;BME280;5288;42.334;23.876;2022-08-05T03:42:59;56189.75;;;-140.56;76.66
10482;BME280;5288;42.334;23.876;2022-08-05T03:45:26;56175.91;;;-140.56;76.73
10482;BME280;5288;42.334;23.876;2022-08-05T03:47:54;56205.56;;;-140.56;76.99
10482;BME280;5288;42.334;23.876;2022-08-05T03:50:21;56197.66;;;-140.56;77.33
10482;BME280;5288;42.334;23.876;2022-08-05T03:52:56;56205.56;;;-140.56;77.07
10482;BME280;5288;42.334;23.876;2022-08-05T03:55:27;56203.59;;;-140.56;77.23
10482;BME280;5288;42.334;23.876;2022-08-05T03:57:56;56179.88;;;-140.56;77.01
10482;BME280;5288;42.334;23.876;2022-08-05T04:00:24;56185.81;;;-140.56;76.88
10482;BME280;5288;42.334;23.876;2022-08-05T04:02:58;56187.78;;;-140.56;76.98
10482;BME280;5288;42.334;23.876;2022-08-05T04:05:30;56179.88;;;-140.56;76.82
10482;BME280;5288;42.334;23.876;2022-08-05T04:08:01;56191.72;;;-140.56;76.76
10482;BME280;5288;42.334;23.876;2022-08-05T04:10:29;56173.94;;;-140.56;76.71
10482;BME280;5288;42.334;23.876;2022-08-05T04:12:56;56181.84;;;-140.56;76.69
10482;BME280;5288;42.334;23.876;2022-08-05T04:15:23;56173.94;;;-140.56;76.72
10482;BME280;5288;42.334;23.876;2022-08-05T04:17:51;56205.56;;;-140.56;76.61
10482;BME280;5288;42.334;23.876;2022-08-05T04:20:20;56177.91;;;-140.56;76.41
10482;BME280;5288;42.334;23.876;2022-08-05T04:22:48;56185.81;;;-140.56;76.31
10482;BME280;5288;42.334;23.876;2022-08-05T04:25:16;56148.25;;;-140.56;76.53
10482;BME280;5288;42.334;23.876;2022-08-05T04:27:43;56183.81;;;-140.56;76.25
10482;BME280;5288;42.334;23.876;2022-08-05T04:30:11;56156.16;;;-140.56;75.89
10482;BME280;5288;42.334;23.876;2022-08-05T04:32:38;56207.53;;;-140.56;75.59
10482;BME280;5288;42.334;23.876;2022-08-05T04:35:06;56177.91;;;-140.56;75.42
10482;BME280;5288;42.334;23.876;2022-08-05T04:37:34;56150.22;;;-140.56;74.79
10482;BME280;5288;42.334;23.876;2022-08-05T04:40:00;56166.03;;;-140.56;74.63
10482;BME280;5288;42.334;23.876;2022-08-05T04:42:29;56162.09;;;-140.56;74.02
10482;BME280;5288;42.334;23.876;2022-08-05T04:44:56;56154.19;;;-140.56;74.02
10482;BME280;5288;42.334;23.876;2022-08-05T04:47:23;56142.31;;;-140.56;73.48
10482;BME280;5288;42.334;23.876;2022-08-05T04:49:50;56152.22;;;-140.56;72.92
10482;BME280;5288;42.334;23.876;2022-08-05T04:52:17;56160.13;;;-140.56;72.48
10482;BME280;5288;42.334;23.876;2022-08-05T04:54:44;56142.31;;;-140.56;71.86
10482;BME280;5288;42.334;23.876;2022-08-05T04:57:11;56136.41;;;-140.56;71.70
10482;BME280;5288;42.334;23.876;2022-08-05T04:59:39;56146.28;;;-140.56;71.40
10482;BME280;5288;42.334;23.876;2022-08-05T05:02:10;56144.31;;;-140.56;71.21
10482;BME280;5288;42.334;23.876;2022-08-05T05:04:39;56132.44;;;-140.56;71.25
10482;BME280;5288;42.334;23.876;2022-08-05T05:07:06;56124.53;;;-140.56;71.28
10482;BME280;5288;42.334;23.876;2022-08-05T05:09:34;56132.44;;;-140.56;71.11
10482;BME280;5288;42.334;23.876;2022-08-05T05:12:01;56116.63;;;-140.56;71.38
10482;BME280;5288;42.334;23.876;2022-08-05T05:14:28;56154.19;;;-140.56;71.29
10482;BME280;5288;42.334;23.876;2022-08-05T05:16:56;56120.59;;;-140.56;70.65
10482;BME280;5288;42.334;23.876;2022-08-05T05:19:23;56096.88;;;-140.56;70.38
10482;BME280;5288;42.334;23.876;2022-08-05T05:21:50;56146.28;;;-140.56;69.92
10482;BME280;5288;42.334;23.876;2022-08-05T05:24:17;56120.59;;;-140.56;69.47
10482;BME280;5288;42.334;23.876;2022-08-05T05:26:46;56053.41;;;-140.56;69.08
10482;BME280;5288;42.334;23.876;2022-08-05T05:29:13;56102.81;;;-140.56;68.68
10482;BME280;5288;42.334;23.876;2022-08-05T05:31:40;56087.00;;;-140.56;67.88
10482;BME280;5288;42.334;23.876;2022-08-05T05:34:09;56096.88;;;-140.56;67.41
10482;BME280;5288;42.334;23.876;2022-08-05T05:36:36;56108.72;;;-140.56;67.15
10482;BME280;5288;42.334;23.876;2022-08-05T05:39:03;56088.97;;;-140.56;67.32
10482;BME280;5288;42.334;23.876;2022-08-05T05:41:30;56104.78;;;-140.56;66.99
10482;BME280;5288;42.334;23.876;2022-08-05T05:43:58;56081.06;;;-140.56;66.74
10482;BME280;5288;42.334;23.876;2022-08-05T05:46:25;56041.53;;;-140.56;66.42
10482;BME280;5288;42.334;23.876;2022-08-05T05:48:52;56037.59;;;-140.56;66.50
10482;BME280;5288;42.334;23.876;2022-08-05T05:51:21;56088.97;;;-140.56;65.62
10482;BME280;5288;42.334;23.876;2022-08-05T05:53:49;56112.69;;;-140.56;65.92
10482;BME280;5288;42.334;23.876;2022-08-05T05:56:17;56063.28;;;-140.56;64.98
10482;BME280;5288;42.334;23.876;2022-08-05T05:58:45;56043.50;;;-140.56;63.83
10482;BME280;5288;42.334;23.876;2022-08-05T06:01:12;56065.25;;;-140.56;62.20
10482;BME280;5288;42.334;23.876;2022-08-05T06:03:40;56049.44;;;-140.56;62.85
10482;BME280;5288;42.334;23.876;2022-08-05T06:06:07;56033.63;;;-140.56;63.00
10482;BME280;5288;42.334;23.876;2022-08-05T06:08:36;56033.63;;;-140.56;62.24
10482;BME280;5288;42.334;23.876;2022-08-05T06:11:06;56017.81;;;-140.56;61.29
10482;BME280;5288;42.334;23.876;2022-08-05T06:13:37;56015.84;;;-140.56;60.37
10482;BME280;5288;42.334;23.876;2022-08-05T06:16:08;56027.72;;;-140.56;61.30
10482;BME280;5288;42.334;23.876;2022-08-05T06:18:36;56011.91;;;-140.56;60.76
10482;BME280;5288;42.334;23.876;2022-08-05T06:21:22;55988.19;;;-140.56;60.08
10482;BME280;5288;42.334;23.876;2022-08-05T06:23:50;55996.09;;;-140.56;59.57
10482;BME280;5288;42.334;23.876;2022-08-05T06:26:17;56007.94;;;-140.56;58.80
10482;BME280;5288;42.334;23.876;2022-08-05T06:28:44;55964.47;;;-140.56;57.73
10482;BME280;5288;42.334;23.876;2022-08-05T06:31:11;55968.41;;;-140.56;57.19
10482;BME280;5288;42.334;23.876;2022-08-05T06:33:39;55974.34;;;-140.56;56.38
10482;BME280;5288;42.334;23.876;2022-08-05T06:36:06;55990.16;;;-140.56;55.57
10482;BME280;5288;42.334;23.876;2022-08-05T06:38:33;55950.63;;;-140.56;54.29
10482;BME280;5288;42.334;23.876;2022-08-05T06:41:02;55980.28;;;-140.56;54.78
10482;BME280;5288;42.334;23.876;2022-08-05T06:43:30;55974.34;;;-140.56;55.05
10482;BME280;5288;42.334;23.876;2022-08-05T06:45:57;55942.72;;;-140.56;54.54
10482;BME280;5288;42.334;23.876;2022-08-05T06:48:24;55960.53;;;-140.56;53.79
10482;BME280;5288;42.334;23.876;2022-08-05T06:50:51;55934.81;;;-140.56;54.00
10482;BME280;5288;42.334;23.876;2022-08-05T06:53:18;55958.53;;;-140.56;54.79
10482;BME280;5288;42.334;23.876;2022-08-05T06:55:45;55956.56;;;-140.56;53.57
10482;BME280;5288;42.334;23.876;2022-08-05T06:58:15;55940.75;;;-140.56;52.66
10482;BME280;5288;42.334;23.876;2022-08-05T07:00:42;55930.88;;;-140.56;52.80
10482;BME280;5288;42.334;23.876;2022-08-05T07:03:09;55972.38;;;-140.56;51.75
10482;BME280;5288;42.334;23.876;2022-08-05T07:05:37;55905.19;;;-140.56;51.68
10482;BME280;5288;42.334;23.876;2022-08-05T07:08:04;55928.91;;;-140.56;52.59
10482;BME280;5288;42.334;23.876;2022-08-05T07:10:33;55919.03;;;-140.56;49.39
10482;BME280;5288;42.334;23.876;2022-08-05T07:13:00;55913.09;;;-140.56;49.98
10482;BME280;5288;42.334;23.876;2022-08-05T07:15:46;55893.34;;;-140.56;49.47
10482;BME280;5288;42.334;23.876;2022-08-05T07:18:30;55915.06;;;-140.56;48.77
10482;BME280;5288;42.334;23.876;2022-08-05T07:20:58;55907.16;;;-140.56;48.56
10482;BME280;5288;42.334;23.876;2022-08-05T07:23:25;55948.66;;;-140.56;48.05
10482;BME280;5288;42.334;23.876;2022-08-05T07:25:52;55889.38;;;-140.56;47.51
10482;BME280;5288;42.334;23.876;2022-08-05T07:28:19;55879.50;;;-140.56;47.94
10482;BME280;5288;42.334;23.876;2022-08-05T07:30:48;55875.53;;;-140.56;46.69
10482;BME280;5288;42.334;23.876;2022-08-05T07:33:15;55863.69;;;-140.56;47.86
10482;BME280;5288;42.334;23.876;2022-08-05T07:35:45;55859.75;;;-140.56;45.81
10482;BME280;5288;42.334;23.876;2022-08-05T07:38:12;55863.69;;;-140.56;46.97
10482;BME280;5288;42.334;23.876;2022-08-05T07:40:39;55839.97;;;-140.56;44.13
10482;BME280;5288;42.334;23.876;2022-08-05T07:43:07;55832.06;;;-140.56;45.45
10482;BME280;5288;42.334;23.876;2022-08-05T07:45:34;55863.69;;;-140.56;44.67
10482;BME280;5288;42.334;23.876;2022-08-05T07:48:03;55851.84;;;-140.56;44.82
10482;BME280;5288;42.334;23.876;2022-08-05T07:50:30;55826.16;;;-140.56;43.49
10482;BME280;5288;42.334;23.876;2022-08-05T07:52:57;55816.25;;;-140.56;43.59
10482;BME280;5288;42.334;23.876;2022-08-05T07:55:24;55804.41;;;-140.56;41.96
10482;BME280;5288;42.334;23.876;2022-08-05T07:57:52;55834.06;;;-140.56;42.20
10482;BME280;5288;42.334;23.876;2022-08-05T08:00:19;55816.25;;;-140.56;42.55
10482;BME280;5288;42.334;23.876;2022-08-05T08:02:46;55822.19;;;-140.56;41.90
10482;BME280;5288;42.334;23.876;2022-08-05T08:05:15;55818.25;;;-140.56;42.73
10482;BME280;5288;42.334;23.876;2022-08-05T08:07:43;55806.38;;;-140.56;43.26
10482;BME280;5288;42.334;23.876;2022-08-05T08:10:10;55814.28;;;-140.56;41.22
10482;BME280;5288;42.334;23.876;2022-08-05T08:12:37;55774.75;;;-140.56;41.88
10482;BME280;5288;42.334;23.876;2022-08-05T08:15:07;55778.72;;;-140.56;40.30
10482;BME280;5288;42.334;23.876;2022-08-05T08:17:35;55810.34;;;-140.56;39.41
10482;BME280;5288;42.334;23.876;2022-08-05T08:20:03;55806.38;;;-140.56;38.79
10482;BME280;5288;42.334;23.876;2022-08-05T08:22:32;55764.88;;;-140.56;41.46
10482;BME280;5288;42.334;23.876;2022-08-05T08:25:00;55764.88;;;-140.56;39.60
10482;BME280;5288;42.334;23.876;2022-08-05T08:27:28;55753.03;;;-140.56;39.96
10482;BME280;5288;42.334;23.876;2022-08-05T08:29:55;55749.06;;;-140.56;39.21
10482;BME280;5288;42.334;23.876;2022-08-05T08:32:22;55753.03;;;-140.56;38.14
10482;BME280;5288;42.334;23.876;2022-08-05T08:34:50;55755.00;;;-140.56;39.20
10482;BME280;5288;42.334;23.876;2022-08-05T08:37:17;55745.13;;;-140.56;39.42
10482;BME280;5288;42.334;23.876;2022-08-05T08:39:45;55721.41;;;-140.56;38.00
10482;BME280;5288;42.334;23.876;2022-08-05T08:42:14;55745.13;;;-140.56;35.84
10482;BME280;5288;42.334;23.876;2022-08-05T08:44:42;55723.38;;;-140.56;37.87
10482;BME280;5288;42.334;23.876;2022-08-05T08:47:10;55721.41;;;-140.56;36.09
10482;BME280;5288;42.334;23.876;2022-08-05T08:49:43;55674.00;;;-140.56;33.48
10482;BME280;5288;42.334;23.876;2022-08-05T08:52:13;55715.50;;;-140.56;37.08
10482;BME280;5288;42.334;23.876;2022-08-05T08:54:45;55705.59;;;-140.56;36.72
10482;BME280;5288;42.334;23.876;2022-08-05T08:57:13;55691.78;;;-140.56;36.17
10482;BME280;5288;42.334;23.876;2022-08-05T08:59:40;55709.56;;;-140.56;36.63
10482;BME280;5288;42.334;23.876;2022-08-05T09:02:08;55685.84;;;-140.56;33.08
10482;BME280;5288;42.334;23.876;2022-08-05T09:04:37;55689.81;;;-140.56;33.89
10482;BME280;5288;42.334;23.876;2022-08-05T09:07:05;55689.81;;;-140.56;33.56
10482;BME280;5288;42.334;23.876;2022-08-05T09:09:32;55683.88;;;-140.56;32.63
10482;BME280;5288;42.334;23.876;2022-08-05T09:12:03;55650.28;;;-140.56;33.95
10482;BME280;5288;42.334;23.876;2022-08-05T09:14:30;55677.94;;;-140.56;32.73
10482;BME280;5288;42.334;23.876;2022-08-05T09:16:58;55693.75;;;-140.56;32.70
10482;BME280;5288;42.334;23.876;2022-08-05T09:19:27;55664.13;;;-140.56;32.80
10482;BME280;5288;42.334;23.876;2022-08-05T09:21:54;55703.63;;;-140.56;33.82
10482;BME280;5288;42.334;23.876;2022-08-05T09:24:21;55677.94;;;-140.56;32.50
10482;BME280;5288;42.334;23.876;2022-08-05T09:26:50;55650.28;;;-140.56;35.38
10482;BME280;5288;42.334;23.876;2022-08-05T09:29:36;55628.53;;;-140.56;31.98
10482;BME280;5288;42.334;23.876;2022-08-05T09:32:05;55626.56;;;-140.56;31.84
10482;BME280;5288;42.334;23.876;2022-08-05T09:34:46;55650.28;;;-140.56;31.56
10482;BME280;5288;42.334;23.876;2022-08-05T09:37:17;55644.34;;;-140.56;32.72
10482;BME280;5288;42.334;23.876;2022-08-05T09:39:45;55634.47;;;-140.56;32.56
10482;BME280;5288;42.334;23.876;2022-08-05T09:42:13;55652.25;;;-140.56;31.18
10482;BME280;5288;42.334;23.876;2022-08-05T09:44:44;55634.47;;;-140.56;30.82
10482;BME280;5288;42.334;23.876;2022-08-05T09:47:14;55642.38;;;-140.56;30.78
10482;BME280;5288;42.334;23.876;2022-08-05T09:49:45;55630.53;;;-140.56;32.87
10482;BME280;5288;42.334;23.876;2022-08-05T09:52:17;55628.53;;;-140.56;30.42
10482;BME280;5288;42.334;23.876;2022-08-05T09:54:51;55618.66;;;-140.56;33.08
10482;BME280;5288;42.334;23.876;2022-08-05T09:57:31;55598.91;;;-140.56;33.09
10482;BME280;5288;42.334;23.876;2022-08-05T10:00:01;55626.56;;;-140.56;32.84
10482;BME280;5288;42.334;23.876;2022-08-05T10:02:31;55591.00;;;-140.56;30.36
10482;BME280;5288;42.334;23.876;2022-08-05T10:05:04;55600.88;;;-140.56;30.55
10482;BME280;5288;42.334;23.876;2022-08-05T10:07:46;55569.25;;;-140.56;29.67
10482;BME280;5288;42.334;23.876;2022-08-05T10:10:14;55563.34;;;-140.56;28.94
10482;BME280;5288;42.334;23.876;2022-08-05T10:12:43;55555.44;;;-140.56;29.91
10482;BME280;5288;42.334;23.876;2022-08-05T10:15:27;55567.28;;;-140.56;29.75
10482;BME280;5288;42.334;23.876;2022-08-05T10:18:05;55628.53;;;-140.56;32.05
10482;BME280;5288;42.334;23.876;2022-08-05T10:20:35;55642.38;;;-140.56;32.95
10482;BME280;5288;42.334;23.876;2022-08-05T10:23:02;55630.53;;;-140.56;31.94
10482;BME280;5288;42.334;23.876;2022-08-05T10:25:29;55600.88;;;-140.56;32.69
10482;BME280;5288;42.334;23.876;2022-08-05T10:27:57;55563.34;;;-140.56;30.00
10482;BME280;5288;42.334;23.876;2022-08-05T10:30:26;55545.56;;;-140.56;29.07
10482;BME280;5288;42.334;23.876;2022-08-05T10:32:54;55563.34;;;-140.56;31.03
10482;BME280;5288;42.334;23.876;2022-08-05T10:35:21;55533.69;;;-140.56;30.65
10482;BME280;5288;42.334;23.876;2022-08-05T10:37:48;55541.59;;;-140.56;29.40
10482;BME280;5288;42.334;23.876;2022-08-05T10:40:20;55583.09;;;-140.56;29.27
10482;BME280;5288;42.334;23.876;2022-08-05T10:42:52;55600.88;;;-140.56;29.98
10482;BME280;5288;42.334;23.876;2022-08-05T10:45:26;55575.19;;;-140.56;29.49
10482;BME280;5288;42.334;23.876;2022-08-05T10:47:55;55596.94;;;-140.56;30.04
10482;BME280;5288;42.334;23.876;2022-08-05T10:50:22;55594.94;;;-140.56;29.86
10482;BME280;5288;42.334;23.876;2022-08-05T10:52:50;55636.44;;;-140.56;29.83
10482;BME280;5288;42.334;23.876;2022-08-05T10:55:22;55612.75;;;-140.56;30.05
10482;BME280;5288;42.334;23.876;2022-08-05T10:58:07;55606.81;;;-140.56;30.77
10482;BME280;5288;42.334;23.876;2022-08-05T11:00:36;55614.72;;;-140.56;30.06
10482;BME280;5288;42.334;23.876;2022-08-05T11:03:11;55618.66;;;-140.56;30.36
10482;BME280;5288;42.334;23.876;2022-08-05T11:05:40;55622.63;;;-140.56;29.71
10482;BME280;5288;42.334;23.876;2022-08-05T11:08:08;55575.19;;;-140.56;29.95
10482;BME280;5288;42.334;23.876;2022-08-05T11:10:37;55594.94;;;-140.56;31.37
10482;BME280;5288;42.334;23.876;2022-08-05T11:13:06;55594.94;;;-140.56;31.08
10482;BME280;5288;42.334;23.876;2022-08-05T11:15:37;55591.00;;;-140.56;30.54
10482;BME280;5288;42.334;23.876;2022-08-05T11:18:22;55567.28;;;-140.56;29.97
10482;BME280;5288;42.334;23.876;2022-08-05T11:20:52;55583.09;;;-140.56;32.15
10482;BME280;5288;42.334;23.876;2022-08-05T11:23:41;55587.06;;;-140.56;32.16
10482;BME280;5288;42.334;23.876;2022-08-05T11:26:09;55614.72;;;-140.56;31.35
10482;BME280;5288;42.334;23.876;2022-08-05T11:28:42;55606.81;;;-140.56;33.99
10482;BME280;5288;42.334;23.876;2022-08-05T11:31:28;55604.84;;;-140.56;33.89
10482;BME280;5288;42.334;23.876;2022-08-05T11:34:04;55598.91;;;-140.56;33.54
10482;BME280;5288;42.334;23.876;2022-08-05T11:41:59;55626.56;;;-140.56;38.38
10482;BME280;5288;42.334;23.876;2022-08-05T11:44:35;55640.41;;;-140.56;39.19
10482;BME280;5288;42.334;23.876;2022-08-05T11:47:05;55622.63;;;-140.56;41.74
10482;BME280;5288;42.334;23.876;2022-08-05T11:49:32;55656.22;;;-140.56;42.35
10482;BME280;5288;42.334;23.876;2022-08-05T11:52:00;55681.91;;;-140.56;41.48
10482;BME280;5288;42.334;23.876;2022-08-05T11:54:29;55662.13;;;-140.56;40.28
10482;BME280;5288;42.334;23.876;2022-08-05T11:56:59;55622.63;;;-140.56;35.22
10482;BME280;5288;42.334;23.876;2022-08-05T11:59:29;55598.91;;;-140.56;31.30
10482;BME280;5288;42.334;23.876;2022-08-05T12:02:00;55585.06;;;-140.56;29.94
10482;BME280;5288;42.334;23.876;2022-08-05T12:04:37;55598.91;;;-140.56;30.87
10482;BME280;5288;42.334;23.876;2022-08-05T12:07:06;55604.84;;;-140.56;30.23
10482;BME280;5288;42.334;23.876;2022-08-05T12:09:36;55575.19;;;-140.56;30.27
10482;BME280;5288;42.334;23.876;2022-08-05T12:12:05;55563.34;;;-140.56;30.03
10482;BME280;5288;42.334;23.876;2022-08-05T12:14:37;55571.25;;;-140.56;29.34
10482;BME280;5288;42.334;23.876;2022-08-05T12:17:13;55543.56;;;-140.56;29.19
10482;BME280;5288;42.334;23.876;2022-08-05T12:19:43;55535.69;;;-140.56;29.66
10482;BME280;5288;42.334;23.876;2022-08-05T12:22:11;55553.47;;;-140.56;28.38
10482;BME280;5288;42.334;23.876;2022-08-05T12:24:40;55545.56;;;-140.56;29.89
10482;BME280;5288;42.334;23.876;2022-08-05T12:27:07;55541.59;;;-140.56;29.27
10482;BME280;5288;42.334;23.876;2022-08-05T12:29:35;55535.69;;;-140.56;28.98
10482;BME280;5288;42.334;23.876;2022-08-05T12:32:04;55535.69;;;-140.56;29.10
10482;BME280;5288;42.334;23.876;2022-08-05T12:34:33;55551.47;;;-140.56;28.98
10482;BME280;5288;42.334;23.876;2022-08-05T12:37:06;55573.22;;;-140.56;29.49
10482;BME280;5288;42.334;23.876;2022-08-05T12:39:37;55531.72;;;-140.56;29.37
10482;BME280;5288;42.334;23.876;2022-08-05T12:42:09;55565.31;;;-140.56;29.13
10482;BME280;5288;42.334;23.876;2022-08-05T12:44:37;55579.16;;;-140.56;30.18
10482;BME280;5288;42.334;23.876;2022-08-05T12:47:05;55575.19;;;-140.56;30.35
10482;BME280;5288;42.334;23.876;2022-08-05T12:49:40;55553.47;;;-140.56;29.89
10482;BME280;5288;42.334;23.876;2022-08-05T12:52:15;55555.44;;;-140.56;29.43
10482;BME280;5288;42.334;23.876;2022-08-05T12:54:43;55523.81;;;-140.56;28.98
10482;BME280;5288;42.334;23.876;2022-08-05T12:57:11;55523.81;;;-140.56;29.47